^^
Datos históricos de la estación: Murcia-Puente Tocinos
Diario Informe para Junio 9, 2019 Unidades:  Métrico    Ingés   Ambas
Diario Semanal Mensual Anual
  Máxima: Mínima: Promedio:
Temperatura: 34.5 °C 22.7 °C 27.8 °C
Punto de rocio: 20.2 °C 7.8 °C 13.1 °C
Humedad: 84% 21% 45%
Velocidad viento: 23.3km/h 2.9km/h 9.1km/h
Racha viento: 45.1km/h - -
Viento- - SSO
Presión: 1011.6 hPa 1008.0 hPa -
Precipitación: 0.0 mm    
 
 
Tabla de datos para Junio 9, 2019
Hora Temperatura Punto de rocio Presión Viento Velocidad viento Racha viento Humedad Intensidad lluvia(por hora) Nubes
00:04 23.3 °C 20.2 °C 1009.8 hPa NNE 6.9 km/h 11.3 km/h 83% 0.0 mm
00:09 23.2 °C 20.2 °C 1009.7 hPa NNE 6.9 km/h 11.9 km/h 83% 0.0 mm
00:14 23.2 °C 20.2 °C 1009.7 hPa North 6.9 km/h 11.3 km/h 83% 0.0 mm
00:19 23.2 °C 20.2 °C 1009.8 hPa NNO 5.6 km/h 8 km/h 83% 0.0 mm
00:24 23.2 °C 20.2 °C 1009.8 hPa NNO 2.9 km/h 7.4 km/h 82.9% 0.0 mm
00:29 23.2 °C 20 °C 1009.8 hPa NNO 3.2 km/h 8 km/h 82.1% 0.0 mm
00:34 23.2 °C 19.9 °C 1009.8 hPa NNO 3.9 km/h 8.4 km/h 82% 0.0 mm
00:39 23.2 °C 19.9 °C 1009.8 hPa NO 4.1 km/h 8.4 km/h 82% 0.0 mm
00:44 23.2 °C 19.9 °C 1009.8 hPa NO 4.7 km/h 9.5 km/h 82% 0.0 mm
00:49 23.2 °C 19.9 °C 1009.8 hPa ONO 4.8 km/h 11.1 km/h 82% 0.0 mm
00:54 23.1 °C 19.9 °C 1009.8 hPa ONO 5 km/h 11.3 km/h 82.3% 0.0 mm
00:59 23.1 °C 20 °C 1009.8 hPa ONO 4.9 km/h 8 km/h 83% 0.0 mm
01:04 23 °C 19.9 °C 1009.9 hPa ONO 4.6 km/h 7.4 km/h 83% 0.0 mm
01:09 23 °C 20 °C 1009.9 hPa ONO 4.4 km/h 8 km/h 83.1% 0.0 mm
01:14 22.9 °C 20.1 °C 1009.9 hPa Oeste 3.9 km/h 10 km/h 84% 0.0 mm
01:19 22.9 °C 20.1 °C 1009.9 hPa Oeste 4.9 km/h 13 km/h 84% 0.0 mm
01:24 22.9 °C 20.1 °C 1009.8 hPa Oeste 6.9 km/h 13.7 km/h 84% 0.0 mm
01:29 22.9 °C 20.1 °C 1009.8 hPa Oeste 7.4 km/h 14.5 km/h 84% 0.0 mm
01:34 22.9 °C 20.1 °C 1009.8 hPa ONO 8.4 km/h 12.9 km/h 84% 0.0 mm
01:39 22.9 °C 20.1 °C 1009.8 hPa Oeste 7.8 km/h 11.3 km/h 84% 0.0 mm
01:44 23 °C 20.1 °C 1009.8 hPa ONO 6.5 km/h 9.7 km/h 84% 0.0 mm
01:49 23 °C 20.2 °C 1009.8 hPa Oeste 5.4 km/h 8 km/h 84% 0.0 mm
01:54 23 °C 20 °C 1009.5 hPa OSO 3.2 km/h 7.4 km/h 83.5% 0.0 mm
01:59 23.1 °C 20 °C 1009.5 hPa OSO 3.1 km/h 8 km/h 83% 0.0 mm
02:04 23.1 °C 20.1 °C 1009.5 hPa OSO 2.9 km/h 8.4 km/h 83% 0.0 mm
02:09 23.2 °C 20 °C 1009.4 hPa OSO 3 km/h 8.7 km/h 82.4% 0.0 mm
02:14 23.2 °C 19.9 °C 1009.4 hPa OSO 3.2 km/h 9.7 km/h 82% 0.0 mm
02:19 23.2 °C 19.9 °C 1009.5 hPa Oeste 3.7 km/h 8 km/h 82% 0.0 mm
02:24 23.2 °C 19.9 °C 1009.5 hPa Oeste 4.7 km/h 8 km/h 82% 0.0 mm
02:29 23.2 °C 20.1 °C 1009.5 hPa OSO 4.1 km/h 8 km/h 82.9% 0.0 mm
02:34 23.2 °C 20.2 °C 1009.5 hPa OSO 2.9 km/h 8.7 km/h 83% 0.0 mm
02:39 23.2 °C 20.2 °C 1009.3 hPa OSO 3.4 km/h 9.7 km/h 83% 0.0 mm
02:44 23.2 °C 20.2 °C 1009.3 hPa OSO 4.7 km/h 10.3 km/h 83% 0.0 mm
02:49 23.2 °C 20.2 °C 1009.3 hPa SO 5 km/h 11.3 km/h 83% 0.0 mm
02:54 23.2 °C 20.1 °C 1009.3 hPa SSO 5.8 km/h 13 km/h 82.9% 0.0 mm
02:59 23.1 °C 19.7 °C 1009.3 hPa Sur 6.2 km/h 13 km/h 81.6% 0.0 mm
03:04 22.8 °C 19.6 °C 1009.3 hPa Sur 6.9 km/h 12.9 km/h 82% 0.0 mm
03:09 22.7 °C 19.6 °C 1009.3 hPa SSO 6.8 km/h 11.3 km/h 82.7% 0.0 mm
03:14 22.8 °C 19.8 °C 1009.3 hPa OSO 6.5 km/h 9.5 km/h 83% 0.0 mm
03:19 22.9 °C 19.8 °C 1009.3 hPa OSO 6.2 km/h 13 km/h 83% 0.0 mm
03:24 22.9 °C 19.9 °C 1009.2 hPa OSO 5.8 km/h 12.9 km/h 83% 0.0 mm
03:29 23 °C 19.8 °C 1009.2 hPa OSO 5.8 km/h 9.7 km/h 82.1% 0.0 mm
03:34 23.1 °C 19.8 °C 1009.3 hPa OSO 5.8 km/h 11.1 km/h 82% 0.0 mm
03:39 23.1 °C 19.8 °C 1009.3 hPa OSO 5.8 km/h 11.3 km/h 82% 0.0 mm
03:44 23.1 °C 19.8 °C 1009.3 hPa OSO 5.8 km/h 9.7 km/h 82% 0.0 mm
03:49 23.1 °C 19.8 °C 1009.4 hPa OSO 5.5 km/h 9.7 km/h 82% 0.0 mm
03:54 23 °C 19.6 °C 1009.4 hPa OSO 5 km/h 9.3 km/h 81.4% 0.0 mm
03:59 22.9 °C 19.5 °C 1009.4 hPa OSO 4.9 km/h 9.7 km/h 81% 0.0 mm
04:04 22.9 °C 19.4 °C 1009.4 hPa OSO 4.6 km/h 8 km/h 81% 0.0 mm
04:09 22.9 °C 19.4 °C 1009.4 hPa OSO 4.4 km/h 8 km/h 81% 0.0 mm
04:14 23 °C 19.3 °C 1009.4 hPa OSO 3.9 km/h 11.1 km/h 79.7% 0.0 mm
04:19 23.1 °C 19.1 °C 1009.5 hPa SO 4.5 km/h 11.3 km/h 78.1% 0.0 mm
04:24 23.2 °C 18.8 °C 1009.5 hPa SO 5.8 km/h 9.7 km/h 76.4% 0.0 mm
04:29 23.3 °C 18.6 °C 1009.5 hPa OSO 5.8 km/h 11.1 km/h 75% 0.0 mm
04:34 23.3 °C 18.4 °C 1009.5 hPa SSO 5.8 km/h 11.9 km/h 73.9% 0.0 mm
04:39 23.4 °C 18.3 °C 1009.4 hPa SO 6.3 km/h 11.3 km/h 73% 0.0 mm
04:44 23.6 °C 18.3 °C 1009.4 hPa SO 7.6 km/h 14.8 km/h 72.1% 0.0 mm
04:49 23.6 °C 18.1 °C 1009.4 hPa SO 7.9 km/h 14.8 km/h 71.3% 0.0 mm
04:54 23.6 °C 18.1 °C 1009.4 hPa SO 8.7 km/h 14.8 km/h 71% 0.0 mm
04:59 23.6 °C 17.9 °C 1009.4 hPa SO 8.6 km/h 14.5 km/h 70.2% 0.0 mm
05:04 23.6 °C 17.5 °C 1009.4 hPa SO 8.4 km/h 13 km/h 68.8% 0.0 mm
05:09 23.7 °C 17.2 °C 1009.4 hPa SO 8.7 km/h 19 km/h 67% 0.0 mm
05:14 23.8 °C 16.7 °C 1009.4 hPa SO 9.5 km/h 19.3 km/h 64.6% 0.0 mm
05:19 23.8 °C 16.5 °C 1009.4 hPa SO 9.6 km/h 14.8 km/h 63.5% 0.0 mm
05:24 23.8 °C 16.2 °C 1009.4 hPa SO 10 km/h 14.8 km/h 62.3% 0.0 mm
05:29 23.8 °C 15.8 °C 1009.4 hPa SO 9.6 km/h 14.8 km/h 60.8% 0.0 mm
05:34 23.8 °C 15.6 °C 1009.4 hPa SO 8.7 km/h 14.5 km/h 60.1% 0.0 mm
05:39 23.8 °C 15.4 °C 1009.4 hPa SO 8.3 km/h 13 km/h 59.4% 0.0 mm
05:44 23.8 °C 15.1 °C 1009.4 hPa SO 7.6 km/h 14.8 km/h 58.1% 0.0 mm
05:49 23.8 °C 14.8 °C 1009.5 hPa SO 7.8 km/h 14.8 km/h 57% 0.0 mm
05:54 23.8 °C 14.5 °C 1009.5 hPa SO 8.4 km/h 14.8 km/h 56% 0.0 mm
05:59 23.9 °C 14.3 °C 1009.5 hPa SO 8.5 km/h 17.2 km/h 55.1% 0.0 mm
06:04 23.9 °C 14 °C 1009.6 hPa SSO 8.7 km/h 18.5 km/h 54% 0.0 mm
06:09 23.9 °C 13.7 °C 1009.6 hPa SSO 9.2 km/h 19.3 km/h 52.6% 0.0 mm
06:14 24.1 °C 13.5 °C 1009.6 hPa SSO 10.3 km/h 19.3 km/h 51.7% 0.0 mm
06:19 24.1 °C 13.4 °C 1009.7 hPa SSO 10.2 km/h 16.1 km/h 51.3% 0.0 mm
06:24 24 °C 13.2 °C 1009.7 hPa SSO 10 km/h 14.8 km/h 51% 0.0 mm
06:29 24 °C 13.1 °C 1009.7 hPa SSO 10 km/h 18.5 km/h 50.6% 0.0 mm
06:34 23.9 °C 12.9 °C 1009.8 hPa SSO 10 km/h 19.3 km/h 50% 0.0 mm
06:39 23.9 °C 12.8 °C 1009.8 hPa SSO 10.1 km/h 16.1 km/h 50% 0.0 mm
06:44 23.9 °C 12.8 °C 1009.8 hPa SSO 10.3 km/h 18.5 km/h 49.9% 0.0 mm
06:49 23.9 °C 12.8 °C 1009.9 hPa SSO 10.3 km/h 19.3 km/h 49.8% 0.0 mm
06:54 23.8 °C 12.5 °C 1009.9 hPa SSO 10.3 km/h 17.2 km/h 49.3% 0.0 mm
06:59 23.8 °C 12.4 °C 1009.9 hPa SSO 10.3 km/h 17.7 km/h 49% 0.0 mm
07:04 23.8 °C 12.4 °C 1010.0 hPa SSO 10.3 km/h 16.7 km/h 49% 0.0 mm
07:09 23.8 °C 12.2 °C 1010.0 hPa SSO 10.2 km/h 17.2 km/h 48.3% 0.0 mm
07:14 23.9 °C 12.2 °C 1010.0 hPa SSO 10 km/h 17.7 km/h 48% 0.0 mm
07:19 23.9 °C 12.2 °C 1010.2 hPa SSO 10.3 km/h 16.1 km/h 48% 0.0 mm
07:24 24 °C 12.1 °C 1010.2 hPa SSO 11.1 km/h 16.7 km/h 47.4% 0.0 mm
07:29 24.1 °C 12 °C 1010.2 hPa SO 10.6 km/h 14.8 km/h 47% 0.0 mm
07:34 24.1 °C 12.1 °C 1010.2 hPa SSO 9.5 km/h 14.5 km/h 47% 0.0 mm
07:39 24.2 °C 12.1 °C 1010.2 hPa SO 8.9 km/h 13.7 km/h 47% 0.0 mm
07:44 24.2 °C 12.2 °C 1010.2 hPa Oeste 7.6 km/h 14.5 km/h 47.1% 0.0 mm
07:49 24.2 °C 13.4 °C 1010.5 hPa North 6.8 km/h 12.9 km/h 51.1% 0.0 mm
07:54 24 °C 14 °C 1010.5 hPa NNE 5 km/h 8 km/h 53.7% 0.0 mm
07:59 23.7 °C 14.4 °C 1010.5 hPa NNE 4.9 km/h 9.3 km/h 55.9% 0.0 mm
08:04 23.3 °C 14.4 °C 1010.7 hPa NNE 4.7 km/h 9.7 km/h 57.4% 0.0 mm
08:09 23.2 °C 14.4 °C 1010.7 hPa NE 4.4 km/h 8 km/h 57.7% 0.0 mm
08:14 23.3 °C 14.3 °C 1010.7 hPa Este 3.9 km/h 7.6 km/h 57% 0.0 mm
08:19 23.3 °C 14.2 °C 1010.8 hPa Este 4.2 km/h 9.5 km/h 56.5% 0.0 mm
08:24 23.4 °C 14.4 °C 1010.8 hPa ESE 5 km/h 9.7 km/h 57.2% 0.0 mm
08:29 23.5 °C 13.9 °C 1010.8 hPa SSE 5 km/h 10 km/h 54.8% 0.0 mm
08:34 23.8 °C 13.1 °C 1010.9 hPa SSO 5 km/h 13 km/h 51.1% 0.0 mm
08:39 24 °C 12.6 °C 1010.9 hPa SO 5.8 km/h 12.9 km/h 49% 0.0 mm
08:44 24.2 °C 12.6 °C 1010.9 hPa OSO 7.6 km/h 13 km/h 48.1% 0.0 mm
08:49 24.4 °C 12.7 °C 1011.1 hPa Oeste 7.4 km/h 12.9 km/h 48% 0.0 mm
08:54 24.6 °C 12.8 °C 1011.1 hPa Oeste 6.9 km/h 10.3 km/h 48% 0.0 mm
08:59 24.7 °C 12.9 °C 1011.1 hPa Oeste 6.5 km/h 11.3 km/h 47.8% 0.0 mm
09:04 24.8 °C 12.7 °C 1011.2 hPa OSO 5.8 km/h 10 km/h 47% 0.0 mm
09:09 25 °C 13 °C 1011.2 hPa OSO 5.1 km/h 9.7 km/h 47.4% 0.0 mm
09:14 25.3 °C 12.9 °C 1011.2 hPa OSO 3.9 km/h 9.7 km/h 46.2% 0.0 mm
09:19 25.5 °C 12.7 °C 1011.3 hPa Oeste 4.2 km/h 11.1 km/h 45.2% 0.0 mm
09:24 25.7 °C 12.7 °C 1011.3 hPa OSO 5 km/h 11.9 km/h 44.7% 0.0 mm
09:29 25.9 °C 12.6 °C 1011.3 hPa OSO 5.6 km/h 14.8 km/h 43.7% 0.0 mm
09:34 26.1 °C 12.3 °C 1011.4 hPa OSO 6.9 km/h 15.6 km/h 42.5% 0.0 mm
09:39 26.2 °C 12.3 °C 1011.4 hPa Oeste 7.8 km/h 16.7 km/h 42% 0.0 mm
09:44 26.4 °C 12.5 °C 1011.4 hPa Oeste 9.5 km/h 16.1 km/h 42.1% 0.0 mm
09:49 26.6 °C 12.3 °C 1011.4 hPa OSO 9.2 km/h 19 km/h 41% 0.0 mm
09:54 26.7 °C 12.3 °C 1011.3 hPa Oeste 8.7 km/h 19.3 km/h 40.9% 0.0 mm
09:59 26.8 °C 12.2 °C 1011.3 hPa OSO 9.3 km/h 24.1 km/h 40.3% 0.0 mm
10:04 26.9 °C 11.9 °C 1011.3 hPa OSO 10.3 km/h 24.1 km/h 39.4% 0.0 mm
10:09 27 °C 11.9 °C 1011.3 hPa OSO 11 km/h 22.5 km/h 39% 0.0 mm
10:14 27.2 °C 12 °C 1011.3 hPa OSO 12.2 km/h 22.5 km/h 39% 0.0 mm
10:19 27.3 °C 11.9 °C 1011.3 hPa Oeste 11.6 km/h 19 km/h 38.4% 0.0 mm
10:24 27.5 °C 11.8 °C 1011.3 hPa Oeste 10.3 km/h 19.3 km/h 37.8% 0.0 mm
10:29 27.7 °C 11.5 °C 1011.3 hPa OSO 9.7 km/h 20.9 km/h 36.7% 0.0 mm
10:34 27.9 °C 11.1 °C 1011.3 hPa Oeste 8.4 km/h 24.1 km/h 35.3% 0.0 mm
10:39 28.1 °C 11 °C 1011.2 hPa Oeste 9.6 km/h 24.1 km/h 34.6% 0.0 mm
10:44 28.3 °C 10.9 °C 1011.2 hPa Oeste 12.2 km/h 22.5 km/h 34% 0.0 mm
10:49 28.5 °C 11 °C 1011.2 hPa Oeste 11.9 km/h 22 km/h 33.8% 0.0 mm
10:54 28.6 °C 10.7 °C 1011.2 hPa OSO 11.1 km/h 22.5 km/h 33% 0.0 mm
10:59 28.6 °C 10.5 °C 1011.2 hPa Oeste 12.1 km/h 25.9 km/h 32.5% 0.0 mm
11:04 28.6 °C 10.3 °C 1011.2 hPa ONO 14 km/h 25.9 km/h 32.1% 0.0 mm
11:09 28.7 °C 10.3 °C 1011.0 hPa Oeste 13.9 km/h 25.7 km/h 32% 0.0 mm
11:14 28.7 °C 10.4 °C 1011.0 hPa OSO 13.7 km/h 23.7 km/h 32% 0.0 mm
11:19 28.8 °C 10.3 °C 1011.0 hPa Oeste 13.5 km/h 24.1 km/h 31.6% 0.0 mm
11:24 28.9 °C 10.3 °C 1011.0 hPa Oeste 13 km/h 25.9 km/h 31.5% 0.0 mm
11:29 29.1 °C 10.3 °C 1011.0 hPa ONO 12.4 km/h 25.7 km/h 31.1% 0.0 mm
11:34 29.3 °C 10.3 °C 1011.0 hPa ONO 11.1 km/h 23.3 km/h 30.7% 0.0 mm
11:39 29.5 °C 10.1 °C 1011.0 hPa ONO 10.8 km/h 24.1 km/h 30% 0.0 mm
11:44 29.4 °C 10.1 °C 1011.0 hPa ONO 10.3 km/h 20.9 km/h 30.2% 0.0 mm
11:49 29.6 °C 9.8 °C 1011.0 hPa ONO 10.2 km/h 19.3 km/h 29.4% 0.0 mm
11:54 29.7 °C 9.7 °C 1010.8 hPa Oeste 10 km/h 20.9 km/h 28.9% 0.0 mm
11:59 29.9 °C 9.6 °C 1010.8 hPa ONO 10 km/h 20.9 km/h 28.4% 0.0 mm
12:04 30.2 °C 9.5 °C 1010.8 hPa Oeste 10 km/h 20.4 km/h 27.7% 0.0 mm
12:09 30.2 °C 9.6 °C 1010.7 hPa Oeste 9.5 km/h 20.9 km/h 27.8% 0.0 mm
12:14 30.4 °C 9.6 °C 1010.7 hPa OSO 8.4 km/h 17.2 km/h 27.7% 0.0 mm
12:19 30.3 °C 9.7 °C 1010.7 hPa Oeste 8.7 km/h 19 km/h 27.9% 0.0 mm
12:24 30.2 °C 9.7 °C 1010.7 hPa SO 9.5 km/h 19.3 km/h 28% 0.0 mm
12:29 30.4 °C 9.6 °C 1010.7 hPa SO 9.1 km/h 14.5 km/h 27.7% 0.0 mm
12:34 30.6 °C 9.4 °C 1010.7 hPa SO 8.4 km/h 22 km/h 27% 0.0 mm
12:39 30.5 °C 8.9 °C 1010.7 hPa SO 9 km/h 22.5 km/h 26.1% 0.0 mm
12:44 30.6 °C 9.2 °C 1010.7 hPa SSO 10.3 km/h 22.5 km/h 26.5% 0.0 mm
12:49 30.8 °C 9.5 °C 1010.7 hPa SO 10.6 km/h 20.9 km/h 26.7% 0.0 mm
12:54 30.8 °C 9 °C 1010.5 hPa SSO 11.1 km/h 20.4 km/h 25.9% 0.0 mm
12:59 30.9 °C 8.6 °C 1010.5 hPa SSO 10.5 km/h 20.9 km/h 25% 0.0 mm
13:04 31.2 °C 8.3 °C 1010.5 hPa SO 9.5 km/h 17.7 km/h 24.1% 0.0 mm
13:09 31.3 °C 7.9 °C 1010.4 hPa SO 10 km/h 22.5 km/h 23.4% 0.0 mm
13:14 31.3 °C 8 °C 1010.4 hPa SO 11.1 km/h 22.5 km/h 23.5% 0.0 mm
13:19 31.2 °C 7.8 °C 1010.4 hPa SO 10.8 km/h 22.5 km/h 23.3% 0.0 mm
13:24 31.3 °C 8.2 °C 1010.4 hPa SO 10.3 km/h 18.5 km/h 23.7% 0.0 mm
13:29 31.5 °C 8.2 °C 1010.4 hPa Sur 9.8 km/h 20.4 km/h 23.5% 0.0 mm
13:34 31.7 °C 8.1 °C 1010.4 hPa OSO 8.7 km/h 20.9 km/h 23.1% 0.0 mm
13:39 31.8 °C 8.3 °C 1010.2 hPa Oeste 8.6 km/h 19.3 km/h 23.3% 0.0 mm
13:44 32 °C 8.5 °C 1010.2 hPa SSE 8.4 km/h 14.8 km/h 23.4% 0.0 mm
13:49 32.2 °C 8.4 °C 1010.2 hPa SO 8.1 km/h 16.4 km/h 23% 0.0 mm
13:54 32 °C 8.4 °C 1010.2 hPa Este 7.6 km/h 16.1 km/h 23.2% 0.0 mm
13:59 31.9 °C 8.7 °C 1010.2 hPa ENE 7.6 km/h 14.8 km/h 23.9% 0.0 mm
14:04 32 °C 8.8 °C 1010.2 hPa SO 7.6 km/h 16.7 km/h 23.8% 0.0 mm
14:09 32.2 °C 8.8 °C 1010.0 hPa NO 7.6 km/h 16.1 km/h 23.6% 0.0 mm
14:14 32.3 °C 8.7 °C 1010.0 hPa ONO 7.6 km/h 14.5 km/h 23.3% 0.0 mm
14:19 32.4 °C 8.6 °C 1010.0 hPa OSO 7.6 km/h 18.5 km/h 23% 0.0 mm
14:24 32.6 °C 8.7 °C 1009.8 hPa SO 7.6 km/h 19.3 km/h 22.9% 0.0 mm
14:29 32.6 °C 8.6 °C 1009.8 hPa OSO 7.2 km/h 14.8 km/h 22.7% 0.0 mm
14:34 32.6 °C 8.7 °C 1009.8 hPa Oeste 6.5 km/h 14.8 km/h 23% 0.0 mm
14:39 32.6 °C 8.8 °C 1009.7 hPa Oeste 7.1 km/h 14.8 km/h 23% 0.0 mm
14:44 32.7 °C 8.9 °C 1009.7 hPa Oeste 8.4 km/h 19 km/h 23% 0.0 mm
14:49 32.8 °C 8.9 °C 1009.7 hPa SSO 8.5 km/h 19.3 km/h 23% 0.0 mm
14:54 32.8 °C 8.9 °C 1009.5 hPa SSO 8.7 km/h 17.2 km/h 23% 0.0 mm
14:59 32.7 °C 8.8 °C 1009.5 hPa SO 8.7 km/h 18.5 km/h 23% 0.0 mm
15:04 32.6 °C 8.8 °C 1009.5 hPa SSE 8.7 km/h 19.3 km/h 23.1% 0.0 mm
15:09 32.7 °C 8.9 °C 1009.3 hPa Sur 8.6 km/h 19 km/h 23% 0.0 mm
15:14 32.8 °C 9 °C 1009.3 hPa SSE 8.4 km/h 19.3 km/h 23% 0.0 mm
15:19 32.8 °C 8.6 °C 1009.3 hPa SE 9 km/h 16.7 km/h 22.5% 0.0 mm
15:24 32.8 °C 8.8 °C 1009.1 hPa ENE 10.3 km/h 16.7 km/h 22.9% 0.0 mm
15:29 32.9 °C 8.7 °C 1009.1 hPa Oeste 9.7 km/h 14.8 km/h 22.4% 0.0 mm
15:34 33.1 °C 9 °C 1009.1 hPa SSE 8.4 km/h 14.8 km/h 22.7% 0.0 mm
15:39 33.3 °C 8.7 °C 1009.0 hPa NO 7.9 km/h 18.5 km/h 22% 0.0 mm
15:44 33.4 °C 8.8 °C 1009.0 hPa OSO 6.9 km/h 19.3 km/h 22% 0.0 mm
15:49 33.5 °C 8.9 °C 1009.0 hPa OSO 7.1 km/h 19.3 km/h 22% 0.0 mm
15:54 33.7 °C 9.1 °C 1009.0 hPa OSO 7.6 km/h 14 km/h 22% 0.0 mm
15:59 33.7 °C 9 °C 1009.0 hPa Sur 7.6 km/h 14.8 km/h 22% 0.0 mm
16:04 33.6 °C 9 °C 1009.0 hPa OSO 7.6 km/h 14.8 km/h 22% 0.0 mm
16:09 33.7 °C 8.8 °C 1008.8 hPa Oeste 7 km/h 14.5 km/h 21.7% 0.0 mm
16:14 34 °C 9.2 °C 1008.8 hPa NE 5.8 km/h 11.3 km/h 22% 0.0 mm
16:19 34.3 °C 8.9 °C 1008.8 hPa NO 5.3 km/h 13 km/h 21.1% 0.0 mm
16:24 34.5 °C 9 °C 1008.6 hPa OSO 3.9 km/h 12.9 km/h 21% 0.0 mm
16:29 34.4 °C 9 °C 1008.6 hPa NE 4.5 km/h 13 km/h 21% 0.0 mm
16:34 34.4 °C 9 °C 1008.6 hPa ENE 5.8 km/h 12.9 km/h 21.1% 0.0 mm
16:39 34.4 °C 8.9 °C 1008.6 hPa North 5.8 km/h 10 km/h 21% 0.0 mm
16:44 34.3 °C 9.9 °C 1008.6 hPa ENE 5.8 km/h 20.4 km/h 22.6% 0.0 mm
16:49 33.8 °C 12 °C 1008.6 hPa ESE 7.1 km/h 29.1 km/h 26.7% 0.0 mm
16:54 33.7 °C 12 °C 1008.4 hPa ESE 10 km/h 35.9 km/h 26.8% 0.0 mm
16:59 33.5 °C 12.1 °C 1008.4 hPa ESE 12.9 km/h 35.4 km/h 27.4% 0.0 mm
17:04 33.2 °C 12.1 °C 1008.4 hPa SE 18.4 km/h 31.7 km/h 27.7% 0.0 mm
17:09 32.8 °C 12.1 °C 1008.4 hPa SE 19.2 km/h 37 km/h 28.2% 0.0 mm
17:14 32.6 °C 12.2 °C 1008.4 hPa SSE 20.9 km/h 37 km/h 28.9% 0.0 mm
17:19 32.6 °C 12.3 °C 1008.4 hPa SE 21.3 km/h 37 km/h 29% 0.0 mm
17:24 32.4 °C 12.1 °C 1008.3 hPa SSE 22.1 km/h 37 km/h 29% 0.0 mm
17:29 32.4 °C 12.1 °C 1008.3 hPa SE 22.5 km/h 40.7 km/h 29% 0.0 mm
17:34 32.2 °C 11.9 °C 1008.3 hPa SE 23.3 km/h 45.1 km/h 29% 0.0 mm
17:39 32.4 °C 12.1 °C 1008.1 hPa SSE 22.9 km/h 45.1 km/h 29% 0.0 mm
17:44 32.6 °C 12.2 °C 1008.1 hPa SE 21.7 km/h 37 km/h 28.9% 0.0 mm
17:49 32.6 °C 12.3 °C 1008.1 hPa SSE 21.2 km/h 37 km/h 29% 0.0 mm
17:54 32.8 °C 12.1 °C 1008.0 hPa SSE 20.1 km/h 33.8 km/h 28.4% 0.0 mm
17:59 32.7 °C 12.2 °C 1008.0 hPa SE 19.7 km/h 35.9 km/h 28.8% 0.0 mm
18:04 32.7 °C 12.3 °C 1008.0 hPa SE 19 km/h 35.4 km/h 29% 0.0 mm
18:09 32.6 °C 12.3 °C 1008.0 hPa SE 18.8 km/h 35.2 km/h 29% 0.0 mm
18:14 32.4 °C 12.1 °C 1008.0 hPa SE 18.4 km/h 35.4 km/h 29% 0.0 mm
18:19 32.2 °C 12.4 °C 1008.3 hPa SE 18.8 km/h 33.8 km/h 29.9% 0.0 mm
18:24 32.2 °C 12.4 °C 1008.3 hPa ESE 19.8 km/h 33.5 km/h 30% 0.0 mm
18:29 32.2 °C 12.4 °C 1008.3 hPa ESE 19.3 km/h 33.8 km/h 30% 0.0 mm
18:34 32.1 °C 12.6 °C 1008.5 hPa SE 18.4 km/h 29.6 km/h 30.5% 0.0 mm
18:39 32.1 °C 12.8 °C 1008.5 hPa SE 18.3 km/h 33.3 km/h 31% 0.0 mm
18:44 32.2 °C 12.8 °C 1008.5 hPa SE 18 km/h 33.8 km/h 30.8% 0.0 mm
18:49 32.1 °C 12.6 °C 1008.5 hPa SE 17.3 km/h 33.3 km/h 30.5% 0.0 mm
18:54 31.8 °C 12.5 °C 1008.5 hPa SE 15.6 km/h 35.9 km/h 31% 0.0 mm
18:59 31.5 °C 12.4 °C 1008.5 hPa SE 17.8 km/h 35.4 km/h 31.2% 0.0 mm
19:04 31.6 °C 12.5 °C 1008.5 hPa SE 21.7 km/h 30.6 km/h 31.1% 0.0 mm
19:09 31.7 °C 12.5 °C 1008.5 hPa ESE 19.9 km/h 31.5 km/h 31% 0.0 mm
19:14 31.6 °C 12.4 °C 1008.5 hPa SE 16.1 km/h 32.2 km/h 31% 0.0 mm
19:19 31.6 °C 12.4 °C 1008.7 hPa SE 16.5 km/h 28.2 km/h 31% 0.0 mm
19:24 31.4 °C 12.2 °C 1008.7 hPa SE 17.2 km/h 27.8 km/h 31% 0.0 mm
19:29 31.3 °C 12.2 °C 1008.7 hPa SE 17.2 km/h 29.8 km/h 31% 0.0 mm
19:34 31.3 °C 12.2 °C 1008.9 hPa SE 17.2 km/h 30.6 km/h 31% 0.0 mm
19:39 31.2 °C 12.1 °C 1008.9 hPa SE 17 km/h 30.6 km/h 31% 0.0 mm
19:44 31.2 °C 12.1 °C 1008.9 hPa SE 16.4 km/h 29 km/h 31% 0.0 mm
19:49 31.1 °C 11.9 °C 1009.0 hPa SE 16.4 km/h 27.8 km/h 31% 0.0 mm
19:54 31 °C 11.9 °C 1009.0 hPa SE 16.4 km/h 27.8 km/h 31% 0.0 mm
19:59 30.9 °C 11.8 °C 1009.0 hPa SE 16.4 km/h 27.8 km/h 31.1% 0.0 mm
20:04 30.8 °C 12.1 °C 1009.1 hPa SE 16.4 km/h 27.4 km/h 31.8% 0.0 mm
20:09 30.9 °C 12.1 °C 1009.1 hPa ESE 15 km/h 19.3 km/h 31.6% 0.0 mm
20:14 30.9 °C 11.9 °C 1009.1 hPa ESE 11.9 km/h 20.4 km/h 31.2% 0.0 mm
20:19 30.8 °C 11.8 °C 1009.3 hPa SE 12.3 km/h 24.5 km/h 31.1% 0.0 mm
20:24 30.7 °C 11.7 °C 1009.3 hPa SE 13 km/h 24.1 km/h 31.2% 0.0 mm
20:29 30.5 °C 11.9 °C 1009.3 hPa SE 13.6 km/h 25.9 km/h 31.9% 0.0 mm
20:34 30.3 °C 11.8 °C 1009.5 hPa SE 14.8 km/h 25.7 km/h 32% 0.0 mm
20:39 30.3 °C 11.8 °C 1009.5 hPa SE 14.2 km/h 22.5 km/h 32% 0.0 mm
20:44 30.3 °C 11.7 °C 1009.5 hPa ESE 13 km/h 20.4 km/h 32% 0.0 mm
20:49 30.2 °C 11.7 °C 1009.7 hPa SE 12.4 km/h 20.9 km/h 32% 0.0 mm
20:54 30.1 °C 11.6 °C 1009.7 hPa ESE 11.1 km/h 20.9 km/h 32% 0.0 mm
20:59 30 °C 11.5 °C 1009.7 hPa ESE 10.7 km/h 19.3 km/h 32% 0.0 mm
21:04 29.9 °C 11.4 °C 1009.9 hPa SE 10 km/h 16.1 km/h 32% 0.0 mm
21:09 29.8 °C 11.3 °C 1009.9 hPa SE 9.4 km/h 14 km/h 32% 0.0 mm
21:14 29.7 °C 11.3 °C 1009.9 hPa SE 8.4 km/h 14.8 km/h 32% 0.0 mm
21:19 29.7 °C 11.2 °C 1010.1 hPa ESE 8.1 km/h 14.5 km/h 32% 0.0 mm
21:24 29.6 °C 11.2 °C 1010.1 hPa ESE 7.6 km/h 9.7 km/h 32.1% 0.0 mm
21:29 29.6 °C 11.1 °C 1010.1 hPa ESE 7 km/h 10 km/h 32% 0.0 mm
21:34 29.5 °C 11.2 °C 1010.2 hPa SE 5.8 km/h 10 km/h 32.3% 0.0 mm
21:39 29.4 °C 11.1 °C 1010.2 hPa ESE 5.5 km/h 11.9 km/h 32.2% 0.0 mm
21:44 29.3 °C 11.3 °C 1010.2 hPa Este 5 km/h 11.3 km/h 33% 0.0 mm
21:49 29.2 °C 11.3 °C 1010.5 hPa ESE 5.3 km/h 9.7 km/h 33% 0.0 mm
21:54 29.2 °C 11.3 °C 1010.5 hPa ESE 5.8 km/h 9.7 km/h 33% 0.0 mm
21:59 29.2 °C 11.1 °C 1010.5 hPa ESE 5.8 km/h 10 km/h 32.8% 0.0 mm
22:04 29.1 °C 11.1 °C 1010.6 hPa ESE 5.8 km/h 10 km/h 32.7% 0.0 mm
22:09 29 °C 11.1 °C 1010.6 hPa ESE 6 km/h 9.7 km/h 33% 0.0 mm
22:14 28.9 °C 11 °C 1010.6 hPa ESE 6.5 km/h 9.7 km/h 33% 0.0 mm
22:19 28.8 °C 11 °C 1010.8 hPa Este 5.9 km/h 8 km/h 33% 0.0 mm
22:24 28.7 °C 11.1 °C 1010.8 hPa ENE 4.7 km/h 8 km/h 33.7% 0.0 mm
22:29 28.6 °C 11.2 °C 1010.8 hPa ENE 4.2 km/h 8 km/h 34% 0.0 mm
22:34 28.5 °C 11.1 °C 1011.1 hPa Este 3.2 km/h 11.1 km/h 34% 0.0 mm
22:39 28.3 °C 11 °C 1011.1 hPa ESE 4.1 km/h 11.3 km/h 34% 0.0 mm
22:44 28.3 °C 11.2 °C 1011.1 hPa ESE 5.8 km/h 11.3 km/h 34.5% 0.0 mm
22:49 28.3 °C 11.3 °C 1011.3 hPa SE 5.1 km/h 8 km/h 34.8% 0.0 mm
22:54 28.2 °C 11.3 °C 1011.3 hPa ESE 3.9 km/h 11.1 km/h 35% 0.0 mm
22:59 28.2 °C 11.2 °C 1011.3 hPa ESE 4.3 km/h 11.3 km/h 35% 0.0 mm
23:04 28.1 °C 11.2 °C 1011.5 hPa SE 5 km/h 9.7 km/h 35% 0.0 mm
23:09 28 °C 11.1 °C 1011.5 hPa SE 4.9 km/h 12.2 km/h 35% 0.0 mm
23:14 27.8 °C 11 °C 1011.5 hPa ESE 4.7 km/h 13 km/h 35% 0.0 mm
23:19 27.7 °C 11.2 °C 1011.6 hPa Este 5 km/h 12.9 km/h 35.9% 0.0 mm
23:24 27.6 °C 11.2 °C 1011.6 hPa ESE 5.8 km/h 9.5 km/h 36% 0.0 mm
23:29 27.6 °C 11.1 °C 1011.6 hPa ESE 5.5 km/h 9.7 km/h 36% 0.0 mm
23:34 27.4 °C 11 °C 1011.6 hPa ESE 5 km/h 9.3 km/h 36% 0.0 mm
23:39 27.4 °C 11 °C 1011.6 hPa ESE 5 km/h 9.7 km/h 36.1% 0.0 mm
23:44 27.4 °C 11.3 °C 1011.6 hPa ESE 5 km/h 9.7 km/h 36.6% 0.0 mm
23:49 27.4 °C 11.2 °C 1011.6 hPa Este 4.6 km/h 10 km/h 36.6% 0.0 mm
23:54 27.2 °C 11.3 °C 1011.5 hPa ENE 3.9 km/h 9.7 km/h 37% 0.0 mm
23:59 27.1 °C 11.2 °C 1011.5 hPa NE 4.3 km/h 9.5 km/h 37.2% 0.0 mm
Murcia-Puente Tocinos, España
Compliments of Weather Underground - 3 mb

La estación de MeteoMurcia.com, publica sus datos en los siguientes proyectos:

Weather Underground PWS IMURCIAP2 Meteoclimatic www.awekas.at

W3Counter
Web Analytics